createdAt,value
2018-12-04T10:47:46.606Z,1132.00
2018-12-04T10:48:46.579Z,1132.00
2018-12-04T10:49:46.566Z,1136.00
2018-12-04T10:50:46.553Z,1132.00
2018-12-04T10:51:46.538Z,1136.00
2018-12-04T10:52:46.563Z,1136.00
2018-12-04T10:53:46.522Z,1132.00
2018-12-04T10:54:46.506Z,1132.00
2018-12-04T10:55:46.501Z,1132.00
2018-12-04T10:56:46.500Z,1136.00
2018-12-04T10:57:46.520Z,1132.00
2018-12-04T10:58:46.466Z,1128.00
2018-12-04T10:59:46.471Z,1140.00
2018-12-04T11:00:46.437Z,1136.00
2018-12-04T11:01:46.431Z,1140.00
2018-12-04T11:02:46.440Z,1136.00
2018-12-04T11:03:46.445Z,1132.00
2018-12-04T11:04:46.399Z,1132.00
2018-12-04T11:05:46.387Z,1132.00
2018-12-04T11:06:46.375Z,1132.00
2018-12-04T11:07:46.371Z,1136.00
2018-12-04T11:08:46.384Z,1132.00
2018-12-04T11:09:46.350Z,1136.00
2018-12-04T11:10:46.416Z,1132.00
2018-12-04T11:11:46.328Z,1132.00
2018-12-04T11:12:46.321Z,1128.00
2018-12-04T11:13:46.331Z,1124.00
2018-12-04T11:14:46.294Z,1124.00
2018-12-04T11:15:46.282Z,1120.00
2018-12-04T11:16:46.282Z,1120.00
2018-12-04T11:17:46.265Z,1120.00
2018-12-04T11:18:46.280Z,1124.00
2018-12-04T11:19:46.265Z,1128.00
2018-12-04T11:20:46.265Z,1132.00
2018-12-04T11:21:46.223Z,1128.00
2018-12-04T11:22:46.215Z,1124.00
2018-12-04T11:23:46.209Z,1124.00
2018-12-04T11:24:46.226Z,1128.00
2018-12-04T11:25:46.219Z,1124.00
2018-12-04T11:26:46.172Z,1120.00
2018-12-04T11:27:46.158Z,1124.00
2018-12-04T11:28:46.156Z,1116.00
2018-12-04T11:29:46.143Z,1120.00
2018-12-04T11:30:46.162Z,1120.00
2018-12-04T11:31:46.125Z,1120.00
2018-12-04T11:32:46.133Z,1116.00
2018-12-04T11:33:46.104Z,1116.00
2018-12-04T11:34:46.107Z,1120.00
2018-12-04T11:35:46.112Z,1116.00
2018-12-04T11:36:46.066Z,1116.00
2018-12-04T11:37:46.063Z,1120.00
2018-12-04T11:38:46.048Z,1120.00
2018-12-04T11:39:46.075Z,1120.00
2018-12-04T11:40:46.061Z,1116.00
2018-12-04T11:41:46.017Z,1116.00
2018-12-04T11:42:46.005Z,1120.00
2018-12-04T11:43:46.007Z,1116.00
2018-12-04T11:44:45.988Z,1116.00
2018-12-04T11:45:46.005Z,1112.00
2018-12-04T11:46:45.970Z,1112.00
2018-12-04T11:47:45.957Z,1108.00
2018-12-04T11:48:45.962Z,1108.00
2018-12-04T11:49:45.935Z,1104.00
2018-12-04T11:50:45.951Z,1108.00
2018-12-04T11:51:45.925Z,1108.00
2018-12-04T11:52:45.908Z,1100.00
2018-12-04T11:53:45.897Z,1108.00
2018-12-04T11:54:45.894Z,1108.00
2018-12-04T11:55:45.906Z,1108.00
2018-12-04T11:56:45.892Z,1100.00
2018-12-04T11:57:45.856Z,1104.00
2018-12-04T11:58:45.854Z,1104.00
2018-12-04T11:59:45.837Z,1108.00
2018-12-04T12:00:45.828Z,1108.00
2018-12-04T12:01:45.848Z,1108.00
2018-12-04T12:02:45.808Z,1104.00
2018-12-04T12:03:45.806Z,1100.00
2018-12-04T12:04:45.797Z,1100.00
2018-12-04T12:05:45.774Z,1100.00
2018-12-04T12:06:45.802Z,1100.00
2018-12-04T12:07:45.788Z,1096.00
2018-12-04T12:08:45.751Z,1096.00
2018-12-04T12:09:45.742Z,1096.00
2018-12-04T12:10:45.724Z,1096.00
2018-12-04T12:11:45.740Z,1096.00
2018-12-04T12:12:45.740Z,1096.00
2018-12-04T12:13:45.721Z,1092.00
2018-12-04T12:14:45.696Z,1092.00
2018-12-04T12:15:45.669Z,1088.00
2018-12-04T12:16:45.703Z,1088.00
2018-12-04T12:17:45.648Z,1080.00
2018-12-04T12:18:45.642Z,1084.00
2018-12-04T12:19:45.630Z,1084.00
2018-12-04T12:20:45.624Z,1080.00
2018-12-04T12:21:45.678Z,1080.00
2018-12-04T12:22:45.625Z,1080.00
2018-12-04T12:23:45.599Z,1080.00
2018-12-04T12:24:45.586Z,1076.00
2018-12-04T12:25:45.562Z,1076.00
2018-12-04T12:26:45.556Z,1080.00
2018-12-04T12:27:45.586Z,1072.00
2018-12-04T12:28:45.530Z,1076.00
2018-12-04T12:29:45.527Z,1076.00
2018-12-04T12:30:45.510Z,1068.00
2018-12-04T12:31:45.504Z,1056.00
2018-12-04T12:32:45.520Z,1060.00
2018-12-04T12:33:45.524Z,1060.00
2018-12-04T12:34:45.470Z,1060.00
2018-12-04T12:35:45.493Z,1060.00
2018-12-04T12:36:45.448Z,1056.00
2018-12-04T12:37:45.471Z,1060.00
2018-12-04T12:38:45.437Z,1060.00
2018-12-04T12:39:45.420Z,1064.00
2018-12-04T12:40:45.404Z,1064.00
2018-12-04T12:41:45.398Z,1064.00
2018-12-04T12:42:45.417Z,1064.00
2018-12-04T12:43:45.411Z,1060.00
2018-12-04T12:44:45.370Z,1056.00
2018-12-04T12:45:45.353Z,1060.00
2018-12-04T12:46:45.344Z,1060.00
2018-12-04T12:47:45.341Z,1056.00
2018-12-04T12:48:45.348Z,1056.00
2018-12-04T12:49:45.315Z,1052.00
2018-12-04T12:50:45.316Z,1052.00
2018-12-04T12:51:45.295Z,1052.00
2018-12-04T12:52:45.284Z,1048.00
2018-12-04T12:53:45.296Z,1052.00
2018-12-04T12:54:45.271Z,1048.00
2018-12-04T12:55:45.252Z,1044.00
2018-12-04T12:56:45.256Z,1044.00
2018-12-04T12:57:45.240Z,1036.00
2018-12-04T12:58:45.277Z,1040.00
2018-12-04T12:59:45.212Z,1040.00
2018-12-04T13:00:45.210Z,1036.00
2018-12-04T13:01:45.191Z,1040.00
2018-12-04T13:02:45.198Z,1036.00
2018-12-04T13:03:45.202Z,1032.00
2018-12-04T13:04:45.167Z,1028.00
2018-12-04T13:05:45.154Z,1032.00
2018-12-04T13:06:45.164Z,1028.00
2018-12-04T13:07:45.130Z,1032.00
2018-12-04T13:08:45.134Z,1032.00
2018-12-04T13:09:45.144Z,1024.00
2018-12-04T13:10:45.096Z,1020.00
2018-12-04T13:11:45.086Z,1016.00
